Portada
METAR-TAF:

METAR-TAF

Aeropuertos :

Masvingo, Zimbabue

latitud: 20-04S, longitud: 030-52E, altitud: 1094 m

Observación

El informe se hizo hace 57 minutos, a las 09:00 UTC
Viento 10 kt del sur
Temperatura 22°C
Humedad 78%
Presión 1021 hPa
Visibilidad 10 km o más
Cielo nuboso a una altura de 2000 ft
Cielo nuboso a una altura de 10000 ft

METAR: FVMV 270900Z 18010KT 9999 BKN020 BKN100 22/18 Q1021

Hora: 11:57 (09:57 UTC)


TAF: falta

Observaciones y pronósticos meteorológicos de más de 4000 aeropuertos (mensajes METAR y TAF).

Los puntos amarillos y rojos representan las estaciones disponibles.

Ponga el ratón en el punto deseado para ver el nombre de la estación.

Haga clic para ver las observaciones y los pronósticos meteorológicos.

Para cambiar el mapa : haga clic en los botones verdes con una cruz de color negro para hacer un zoom, en el botón verde con un guión para alejar o en las flechas verdes para mapas adyacentes.


METAR-TAF: